Airfield :
LOGIN :

Register | Disclaimer

   EN    FR    IT 

 










Legend :    VFR   Marginal VFR   IFR   Intensive IFR   Very Intensive IFR
Visi :
Ceiling :
>= 8 km
>= 3000ft
5 to 8 km
1000 to 3000 ft
1500m to 5 km
500 to 1000 ft
800 to 1500m
200 to 500 ft
< 800m
< 200 ft
Symbols :   Thunderstorms  Fog  Heavy snow  Heavy precipitations  Wind > 20 kt
SIGMETs :     Misc.  Thunderstorms  Icing  Turbulence  Mountain Waves  Volcanic Ashes






- Airport Elevation : 157 ft
- IATA code : SXF


EDDB - Berlin Schönefeld

CURRENT METAR :
  • 250420Z AUTO 19007KT 160V230 9999 FEW003 BKN008 16/15 Q1016 TEMPO BKN004

EXPIRED METARs :
  • 250350Z AUTO 17005KT 8000 BKN004 BKN010 BKN032 15/15 Q1016 TEMPO 2500 BCFG SCT001 BKN003
  • 250320Z AUTO VRB01KT 9999 BKN005 BKN012 OVC031 15/15 Q1016 TEMPO BKN004
  • 250250Z AUTO 04003KT 010V090 9999 -RA BKN006 BKN011 OVC019 15/14 Q1016 TEMPO 4000 BR BKN004
  • 250220Z AUTO 01005KT 9999 BKN006 BKN012 OVC017 15/15 Q1016 BECMG 4000 BR BKN004
  • 250150Z AUTO 36005KT 290V050 8000 FEW007 BKN024 BKN034 16/15 Q1016 BECMG 2000 BCFG BKN004
  • 250120Z AUTO 24004KT 130V270 6000 -SHRA SCT005 BKN025 OVC033 FEW///CB 16/16 Q1016 RESHRA BECMG 2000 BCFG BKN002
  • 250050Z AUTO 25004KT 5000 -SHRA BR BKN004 BKN013 BKN018 FEW///CB 16/16 Q1016 RESHRA BECMG 2000 BCFG
  • 250020Z AUTO VRB02KT 3600 -RA BR FEW004 BKN032 BKN046 16/16 Q1016 RESHRA BECMG 2000 -RA BCFG BKN002
  • 242350Z AUTO 32003KT 6000 SHRA FEW///TCU 16/16 Q1016 TEMPO NSW

TAF TAF EDDB
Valid from the 25 at 00:00 until the 26 at 00:00 UTC


242300Z 2500/2524 05004KT 6000 FEW009 BKN030
BECMG 2500/2504 3000 BR SCT003 BKN006
TEMPO 2500/2505 0400 FG BKN001
BECMG 2505/2508 18005KT 9999 FEW012 SCT030
BECMG 2516/2518 10004KT



MET'MAP, your aeronautical weather chart ! - Copyright ORBIFLY December 2007 - Disclaimer

ORBIFLY MET'MAP TEAM :

Programming & Development : Alexandra Zaïnal
Original concept : Baudouin d'Aumeries
Technical & hardware support : Manuel Goepfert
Assistance : Marc-Olivier Méhu




SOURCES & CREDITS :

   NOAA